Time;durP1;ratioP1;P1;durP2;ratioP2;P2;SDS_P1;SDS_P2;PMS_P1;PMS_P2;Temp;Humidity;BMP_temperature;BMP_pressure;BME280_temperature;BME280_humidity;BME280_pressure;Samples;Min_cycle;Max_cycle;Signal;HPM_P1;HPM_P2
2022/10/02 00:01:53;;;;;;;0.37;0.37;;;;;;;13.83;100.00;99182.38;6249825;22;20724;-90
2022/10/02 00:04:24;;;;;;;0.57;0.40;;;;;;;13.79;100.00;99181.28;6223595;22;20204;-90
2022/10/02 00:06:54;;;;;;;0.40;0.40;;;;;;;13.85;100.00;99180.28;6249083;22;20582;-89
2022/10/02 00:09:29;;;;;;;0.90;0.50;;;;;;;13.74;100.00;99188.47;6223285;22;20210;-90
2022/10/02 00:11:58;;;;;;;0.80;0.40;;;;;;;13.88;100.00;99185.16;6249500;22;20206;-90
2022/10/02 00:14:28;;;;;;;1.33;0.60;;;;;;;14.00;100.00;99193.06;6196064;22;20210;-89
2022/10/02 00:16:56;;;;;;;0.80;0.57;;;;;;;14.00;100.00;99190.38;6275325;22;20205;-88
2022/10/02 00:19:24;;;;;;;0.73;0.60;;;;;;;13.95;100.00;99182.28;6248903;22;20214;-89
2022/10/02 00:25:48;;;;;;;1.00;0.40;;;;;;;13.92;100.00;99199.72;6244885;22;20225;-91
2022/10/02 00:28:38;;;;;;;0.80;0.43;;;;;;;13.95;100.00;99207.28;6193785;23;20678;-90
2022/10/02 00:31:11;;;;;;;0.83;0.40;;;;;;;13.86;100.00;99208.81;6200083;23;20252;-89
2022/10/02 00:33:57;;;;;;;0.30;0.30;;;;;;;13.80;100.00;99211.69;6218969;23;20222;-90
2022/10/02 00:36:53;;;;;;;0.50;0.50;;;;;;;13.92;100.00;99210.50;6194755;23;20264;-89
2022/10/02 00:39:42;;;;;;;0.50;0.40;;;;;;;13.84;100.00;99223.59;6149072;23;20207;-89
2022/10/02 00:42:40;;;;;;;0.30;0.30;;;;;;;14.17;100.00;99231.53;6217506;23;20213;-89
2022/10/02 00:45:16;;;;;;;0.83;0.37;;;;;;;14.01;100.00;99227.03;6217778;22;20243;-89
2022/10/02 00:48:03;;;;;;;0.63;0.40;;;;;;;13.92;100.00;99247.38;6244703;23;20207;-90
2022/10/02 00:50:53;;;;;;;0.30;0.30;;;;;;;13.91;100.00;99251.97;6217684;23;20208;-87
2022/10/02 00:53:57;;;;;;;0.40;0.30;;;;;;;13.95;100.00;99263.06;6242558;22;20683;-89
2022/10/02 00:56:33;;;;;;;0.20;0.20;;;;;;;14.00;100.00;99261.22;6217125;23;20715;-90
2022/10/02 00:59:27;;;;;;;0.30;0.30;;;;;;;13.96;100.00;99272.75;6193038;23;20236;-90
2022/10/02 01:02:04;;;;;;;0.33;0.30;;;;;;;14.02;100.00;99269.88;6179165;23;20219;-91
2022/10/02 01:04:36;;;;;;;0.50;0.30;;;;;;;13.94;100.00;99277.59;6193657;23;20277;-90
2022/10/02 01:07:09;;;;;;;0.23;0.23;;;;;;;13.96;100.00;99288.91;6217894;22;20214;-90
2022/10/02 01:09:36;;;;;;;0.97;0.30;;;;;;;13.84;100.00;99278.28;6193943;23;20796;-91
2022/10/02 01:12:04;;;;;;;0.27;0.20;;;;;;;13.82;100.00;99284.94;6193095;22;20234;-91
2022/10/02 01:14:36;;;;;;;0.83;0.40;;;;;;;13.76;100.00;99286.78;6192960;23;20269;-90
2022/10/02 01:17:03;;;;;;;0.37;0.37;;;;;;;13.59;100.00;99294.06;6218107;23;20558;-89
2022/10/02 01:19:36;;;;;;;0.77;0.20;;;;;;;13.63;100.00;99281.72;6168655;23;20261;-89
2022/10/02 01:22:11;;;;;;;0.33;0.30;;;;;;;13.66;100.00;99292.84;6192630;23;20682;-90
2022/10/02 01:24:54;;;;;;;0.53;0.37;;;;;;;13.66;100.00;99287.47;6176962;23;20216;-90
2022/10/02 01:27:22;;;;;;;1.33;0.30;;;;;;;13.69;100.00;99291.50;6203251;22;20258;-89
2022/10/02 01:30:01;;;;;;;1.53;0.33;;;;;;;13.56;100.00;99308.03;6212889;23;20226;-89
2022/10/02 01:32:30;;;;;;;0.50;0.33;;;;;;;13.45;100.00;99298.16;6162786;23;20211;-89
2022/10/02 01:34:59;;;;;;;1.17;0.30;;;;;;;13.45;100.00;99311.59;6214245;23;20207;-90
2022/10/02 01:37:52;;;;;;;0.97;0.30;;;;;;;13.47;100.00;99318.38;6193368;23;20222;-89
2022/10/02 01:40:44;;;;;;;1.10;0.30;;;;;;;13.55;100.00;99319.84;6193099;23;20322;-90
2022/10/02 01:43:20;;;;;;;0.40;0.20;;;;;;;13.53;100.00;99322.75;6213576;23;20286;-89
2022/10/02 01:45:46;;;;;;;0.43;0.30;;;;;;;13.55;100.00;99330.59;6213945;23;20217;-89
2022/10/02 01:48:22;;;;;;;0.97;0.30;;;;;;;13.46;100.00;99334.78;6187650;23;20209;-90
2022/10/02 01:50:58;;;;;;;4.90;0.40;;;;;;;13.27;100.00;99336.88;6212475;23;20261;-90
2022/10/02 01:53:46;;;;;;;0.47;0.30;;;;;;;13.18;100.00;99339.16;6212986;23;20211;-91
2022/10/02 01:56:34;;;;;;;0.57;0.40;;;;;;;13.20;100.00;99347.78;6188022;23;20215;-91
2022/10/02 01:59:20;;;;;;;0.37;0.30;;;;;;;13.10;100.00;99346.78;6163526;23;20306;-89
2022/10/02 02:02:17;;;;;;;1.27;0.40;;;;;;;13.08;100.00;99348.91;6214109;23;20334;-89
2022/10/02 02:04:55;;;;;;;0.77;0.40;;;;;;;12.91;100.00;99350.75;6188154;23;20206;-90
2022/10/02 02:07:29;;;;;;;0.40;0.30;;;;;;;12.80;100.00;99357.81;6188163;23;20208;-89
2022/10/02 02:10:09;;;;;;;1.83;0.57;;;;;;;12.76;100.00;99362.03;6188192;23;20740;-90
2022/10/02 02:12:40;;;;;;;1.13;0.40;;;;;;;12.73;100.00;99367.91;6238077;23;20214;-90
2022/10/02 02:15:31;;;;;;;1.23;0.30;;;;;;;12.65;100.00;99363.69;6213233;23;20207;-90
2022/10/02 02:18:16;;;;;;;1.83;0.40;;;;;;;12.60;100.00;99363.59;6238732;23;20241;-89
2022/10/02 02:20:46;;;;;;;0.33;0.30;;;;;;;12.67;100.00;99377.72;6189358;23;20206;-90
2022/10/02 02:23:19;;;;;;;0.70;0.40;;;;;;;12.71;100.00;99386.94;6190513;22;20548;-90
2022/10/02 02:25:49;;;;;;;0.30;0.30;;;;;;;12.64;100.00;99399.72;6189679;23;20675;-91
2022/10/02 02:28:18;;;;;;;1.17;0.30;;;;;;;12.56;100.00;99400.06;6214453;23;20292;-90
2022/10/02 02:30:48;;;;;;;1.00;0.33;;;;;;;12.51;100.00;99407.22;6190187;23;20293;-91
2022/10/02 02:33:27;;;;;;;0.63;0.23;;;;;;;12.44;100.00;99406.53;6215443;23;20219;-91
2022/10/02 02:35:57;;;;;;;0.80;0.40;;;;;;;12.38;100.00;99402.91;6190303;23;20210;-91
2022/10/02 02:38:30;;;;;;;0.67;0.37;;;;;;;12.43;100.00;99413.78;6189816;23;20209;-91
2022/10/02 02:41:03;;;;;;;0.73;0.27;;;;;;;12.34;100.00;99426.75;6240519;23;20544;-91
2022/10/02 02:43:36;;;;;;;0.37;0.20;;;;;;;12.66;100.00;99431.72;6189982;23;20206;-91
2022/10/02 02:46:09;;;;;;;0.40;0.27;;;;;;;12.61;100.00;99421.69;6213469;23;20217;-89
2022/10/02 02:48:41;;;;;;;0.20;0.20;;;;;;;12.62;100.00;99420.63;6213932;23;21024;-90
2022/10/02 02:51:14;;;;;;;0.53;0.30;;;;;;;12.69;100.00;99423.19;6187057;23;20551;-89
2022/10/02 02:53:50;;;;;;;1.90;0.40;;;;;;;12.66;100.00;99423.66;6188723;23;20237;-89
2022/10/02 02:56:18;;;;;;;1.03;0.30;;;;;;;12.76;100.00;99431.94;6188640;23;20210;-89
2022/10/02 02:58:59;;;;;;;0.40;0.20;;;;;;;12.67;100.00;99436.03;6189468;23;20218;-89
2022/10/02 03:01:26;;;;;;;0.53;0.40;;;;;;;12.77;100.00;99441.63;6210671;23;20214;-88
2022/10/02 03:03:53;;;;;;;0.67;0.50;;;;;;;12.77;100.00;99441.63;6212798;23;20211;-88
2022/10/02 03:06:20;;;;;;;0.20;0.20;;;;;;;13.01;100.00;99434.31;6213226;23;20194;-88
2022/10/02 03:08:50;;;;;;;0.30;0.30;;;;;;;12.90;100.00;99433.28;6214634;23;20663;-89
2022/10/02 03:11:20;;;;;;;0.50;0.40;;;;;;;12.83;100.00;99434.50;6188297;23;20211;-89
2022/10/02 03:13:53;;;;;;;0.30;0.30;;;;;;;12.89;100.00;99422.75;6213172;23;20227;-88
2022/10/02 03:16:40;;;;;;;0.50;0.30;;;;;;;12.83;100.00;99427.22;6212341;23;20292;-88
2022/10/02 03:19:09;;;;;;;1.77;0.30;;;;;;;12.93;100.00;99448.09;6212796;23;20210;-89
2022/10/02 03:21:45;;;;;;;1.00;0.33;;;;;;;12.88;100.00;99448.81;6214716;23;20201;-89
2022/10/02 03:24:22;;;;;;;0.50;0.40;;;;;;;12.73;100.00;99457.44;6227442;22;20235;-88
2022/10/02 03:26:53;;;;;;;0.57;0.30;;;;;;;12.78;100.00;99465.56;6218427;23;20689;-88
2022/10/02 03:29:25;;;;;;;0.23;0.23;;;;;;;12.81;100.00;99464.28;6217965;23;20244;-88
2022/10/02 03:31:52;;;;;;;0.30;0.30;;;;;;;12.69;100.00;99467.00;6244533;22;20238;-87
2022/10/02 03:34:19;;;;;;;0.27;0.27;;;;;;;12.69;100.00;99469.69;6215484;23;20205;-88
2022/10/02 03:36:46;;;;;;;0.23;0.20;;;;;;;12.72;100.00;99473.78;6218260;23;20222;-90
2022/10/02 03:39:13;;;;;;;0.47;0.20;;;;;;;12.68;100.00;99483.38;6244369;22;20207;-87
2022/10/02 03:41:50;;;;;;;1.37;0.30;;;;;;;12.59;100.00;99490.16;6242682;22;20213;-87
2022/10/02 03:44:17;;;;;;;0.13;0.13;;;;;;;12.46;100.00;99477.78;6167277;23;20663;-89
2022/10/02 03:46:43;;;;;;;0.80;0.23;;;;;;;12.47;100.00;99489.34;6193230;23;20230;-88
2022/10/02 03:49:10;;;;;;;0.60;0.40;;;;;;;12.60;100.00;99489.09;6244392;23;20207;-89
2022/10/02 03:51:37;;;;;;;0.30;0.30;;;;;;;12.51;100.00;99485.97;6244684;23;20223;-89
2022/10/02 03:54:11;;;;;;;0.20;0.20;;;;;;;12.52;100.00;99492.16;6216875;22;20204;-88
2022/10/02 03:56:43;;;;;;;1.13;0.30;;;;;;;12.41;100.00;99496.47;6212886;23;20202;-90
2022/10/02 03:59:14;;;;;;;0.30;0.20;;;;;;;12.23;100.00;99501.97;6212594;23;20224;-88
2022/10/02 04:01:47;;;;;;;0.67;0.30;;;;;;;12.29;100.00;99499.19;6213096;23;20237;-88
2022/10/02 04:04:23;;;;;;;0.30;0.20;;;;;;;12.17;100.00;99497.53;6212231;23;20205;-89
2022/10/02 04:06:53;;;;;;;0.60;0.37;;;;;;;12.13;100.00;99507.13;6212954;23;20286;-88
2022/10/02 04:09:27;;;;;;;0.63;0.30;;;;;;;12.17;100.00;99498.38;6212242;23;20209;-88
2022/10/02 04:11:58;;;;;;;1.30;0.30;;;;;;;12.07;100.00;99508.03;6213825;23;20244;-88
2022/10/02 04:14:34;;;;;;;0.50;0.30;;;;;;;12.05;100.00;99502.06;6212528;23;20211;-89
2022/10/02 04:17:33;;;;;;;0.50;0.30;;;;;;;11.93;100.00;99507.44;6212009;23;20206;-88
2022/10/02 04:20:06;;;;;;;0.20;0.20;;;;;;;11.98;100.00;99512.94;6202129;23;20287;-87
2022/10/02 04:22:36;;;;;;;1.50;0.40;;;;;;;12.04;100.00;99508.50;6213408;23;20202;-87
2022/10/02 04:25:12;;;;;;;0.30;0.30;;;;;;;11.99;100.00;99506.50;6163957;23;20207;-88
2022/10/02 04:28:20;;;;;;;1.07;0.20;;;;;;;11.95;100.00;99509.88;6158131;23;20260;-87
2022/10/02 04:30:46;;;;;;;1.23;0.33;;;;;;;11.80;100.00;99508.44;6177886;23;20289;-89
2022/10/02 04:33:23;;;;;;;0.43;0.30;;;;;;;11.79;100.00;99503.34;6157749;23;20221;-88
2022/10/02 04:36:14;;;;;;;0.30;0.30;;;;;;;11.82;100.00;99502.84;6157737;23;20214;-88
2022/10/02 04:39:16;;;;;;;0.60;0.30;;;;;;;11.94;100.00;99492.16;6228907;22;20281;-88
2022/10/02 04:42:08;;;;;;;2.00;0.73;;;;;;;11.85;100.00;99500.53;6166860;23;20583;-85
2022/10/02 04:44:55;;;;;;;1.37;0.50;;;;;;;11.73;100.00;99494.31;6217478;23;20734;-88
2022/10/02 04:47:36;;;;;;;1.20;0.37;;;;;;;11.78;100.00;99497.16;6192981;23;20205;-86
2022/10/02 04:50:20;;;;;;;3.10;0.50;;;;;;;11.72;100.00;99503.41;6192257;22;20594;-88
2022/10/02 04:53:27;;;;;;;1.07;0.40;;;;;;;11.82;100.00;99500.19;6217069;23;20236;-89
2022/10/02 04:56:13;;;;;;;1.07;0.40;;;;;;;11.95;100.00;99508.00;6157012;23;20219;-88
2022/10/02 04:59:07;;;;;;;1.60;0.40;;;;;;;11.85;100.00;99497.84;6243451;22;20215;-88
2022/10/02 05:02:13;;;;;;;1.23;0.30;;;;;;;11.81;100.00;99491.31;6217323;23;20216;-89
2022/10/02 05:04:55;;;;;;;0.77;0.40;;;;;;;11.84;100.00;99480.13;6212682;23;20475;-88
2022/10/02 05:07:59;;;;;;;1.03;0.43;;;;;;;11.79;100.00;99473.81;6192451;23;20228;-88
2022/10/02 05:10:49;;;;;;;0.57;0.40;;;;;;;11.79;100.00;99473.81;6243631;22;20227;-88
2022/10/02 05:13:31;;;;;;;1.77;0.40;;;;;;;11.75;100.00;99478.00;6217475;22;20216;-89
2022/10/02 05:16:11;;;;;;;1.17;0.60;;;;;;;11.69;100.00;99477.03;6244036;23;20262;-88
2022/10/02 05:19:17;;;;;;;1.50;0.40;;;;;;;11.82;100.00;99468.78;6192359;23;20209;-89
2022/10/02 05:21:55;;;;;;;0.90;0.50;;;;;;;11.94;100.00;99473.38;6068512;23;20581;-89
2022/10/02 05:24:53;;;;;;;0.50;0.40;;;;;;;12.13;100.00;99474.91;6201945;23;20284;-87
2022/10/02 05:27:38;;;;;;;1.57;0.60;;;;;;;12.49;100.00;99481.88;6217447;22;20208;-85
2022/10/02 05:30:06;;;;;;;1.50;0.60;;;;;;;12.65;100.00;99490.03;6243934;22;20730;-87
2022/10/02 05:33:06;;;;;;;2.07;0.60;;;;;;;12.80;100.00;99493.03;6217411;23;20201;-87
2022/10/02 05:36:00;;;;;;;2.00;0.60;;;;;;;12.96;100.00;99491.50;6243620;22;20587;-88
2022/10/02 05:38:41;;;;;;;2.40;1.10;;;;;;;13.09;100.00;99485.00;6243670;23;20661;-87
2022/10/02 05:41:21;;;;;;;2.77;0.80;;;;;;;13.30;100.00;99491.66;6244378;23;20209;-86
2022/10/02 05:43:54;;;;;;;1.83;0.80;;;;;;;13.35;100.00;99508.69;6217337;23;20205;-87
2022/10/02 05:46:25;;;;;;;3.47;0.80;;;;;;;13.39;100.00;99503.66;6216824;22;20213;-87
2022/10/02 05:48:56;;;;;;;3.63;1.10;;;;;;;13.74;100.00;99501.59;6216917;23;20209;-88
2022/10/02 05:51:52;;;;;;;1.50;0.80;;;;;;;13.78;100.00;99497.34;6217156;22;20296;-86
2022/10/02 05:54:27;;;;;;;1.93;0.80;;;;;;;13.91;100.00;99507.81;6244962;22;20209;-88
2022/10/02 05:57:12;;;;;;;1.30;0.70;;;;;;;14.02;100.00;99515.00;6245046;23;20220;-88
2022/10/02 05:59:46;;;;;;;2.47;0.90;;;;;;;14.15;100.00;99519.25;6218895;22;20202;-89
2022/10/02 06:02:34;;;;;;;2.47;0.90;;;;;;;14.19;100.00;99523.06;6191933;23;20284;-88
2022/10/02 06:05:21;;;;;;;2.10;0.80;;;;;;;14.41;100.00;99507.84;6217392;23;20210;-89
2022/10/02 06:07:53;;;;;;;2.53;0.90;;;;;;;14.55;100.00;99516.38;6219198;22;20209;-89
2022/10/02 06:10:29;;;;;;;2.07;0.90;;;;;;;14.60;100.00;99511.06;6193616;23;20210;-88
2022/10/02 06:13:03;;;;;;;2.47;0.80;;;;;;;14.60;100.00;99521.03;6219212;23;20269;-88
2022/10/02 06:15:43;;;;;;;2.07;0.80;;;;;;;14.70;100.00;99532.75;6219371;23;20226;-88
2022/10/02 06:18:14;;;;;;;3.47;0.93;;;;;;;14.87;100.00;99538.94;6218463;23;20765;-89
2022/10/02 06:20:53;;;;;;;3.57;0.90;;;;;;;14.94;100.00;99531.47;6218646;23;20211;-89
2022/10/02 06:23:23;;;;;;;2.60;1.07;;;;;;;15.14;100.00;99540.91;6218515;22;20211;-88
2022/10/02 06:25:59;;;;;;;2.87;0.97;;;;;;;15.33;100.00;99543.03;6247029;22;20269;-88
2022/10/02 06:28:35;;;;;;;2.80;0.83;;;;;;;15.65;99.60;99553.94;6248231;22;20263;-88
2022/10/02 06:31:21;;;;;;;3.80;1.10;;;;;;;15.77;98.19;99559.19;6223947;22;20211;-88
2022/10/02 06:33:51;;;;;;;1.13;0.73;;;;;;;15.86;96.42;99544.94;6248941;22;20243;-90
2022/10/02 06:36:46;;;;;;;1.60;0.73;;;;;;;16.27;92.25;99564.25;6248372;22;20714;-88
2022/10/02 06:39:25;;;;;;;2.37;0.90;;;;;;;16.32;91.75;99580.50;6249649;22;20231;-87
2022/10/02 06:42:10;;;;;;;2.37;0.80;;;;;;;16.30;92.37;99577.22;6276141;22;20206;-87
2022/10/02 06:45:07;;;;;;;1.47;0.70;;;;;;;16.25;94.88;99572.59;6275736;22;20207;-89
2022/10/02 06:47:43;;;;;;;2.37;0.83;;;;;;;16.25;92.45;99569.06;6276019;22;20211;-88
2022/10/02 06:50:26;;;;;;;3.43;0.90;;;;;;;16.44;92.55;99575.72;6248756;22;20206;-88
2022/10/02 06:53:24;;;;;;;2.07;0.70;;;;;;;16.75;89.43;99571.34;6275972;22;20204;-87
2022/10/02 06:55:58;;;;;;;1.60;0.70;;;;;;;17.28;85.00;99572.19;6263793;22;20215;-92
2022/10/02 06:58:38;;;;;;;2.13;0.80;;;;;;;17.74;79.48;99576.69;6223067;22;20715;-88
2022/10/02 07:01:21;;;;;;;1.90;0.80;;;;;;;18.06;75.13;99567.56;6273682;22;20208;-87
2022/10/02 07:04:01;;;;;;;1.40;0.80;;;;;;;18.28;74.14;99568.94;6247179;22;20216;-88
2022/10/02 07:06:38;;;;;;;2.97;0.80;;;;;;;18.50;71.75;99574.06;6273728;22;20275;-86
2022/10/02 07:09:42;;;;;;;1.67;0.67;;;;;;;18.26;71.70;99576.50;6247403;22;20243;-87
2022/10/02 07:12:31;;;;;;;1.70;0.60;;;;;;;18.10;72.82;99579.50;6201183;22;20203;-93
2022/10/02 07:15:31;;;;;;;2.77;0.80;;;;;;;17.98;75.19;99585.97;6226279;22;20232;-92
2022/10/02 07:18:03;;;;;;;2.43;0.80;;;;;;;18.20;74.30;99593.03;6188642;22;20218;-93
2022/10/02 07:20:39;;;;;;;1.70;0.80;;;;;;;18.43;71.86;99597.91;6251249;22;20204;-93
2022/10/02 07:23:15;;;;;;;2.20;0.83;;;;;;;18.28;70.42;99587.91;6226196;22;20245;-93
2022/10/02 07:25:57;;;;;;;5.33;1.77;;;;;;;18.17;71.30;99590.88;6251456;22;20235;-93
2022/10/02 07:28:42;;;;;;;2.37;1.07;;;;;;;18.41;70.83;99595.50;6225710;22;20196;-93
2022/10/02 07:31:24;;;;;;;2.00;0.73;;;;;;;18.31;71.50;99589.25;6226556;22;20265;-95
2022/10/02 07:34:12;;;;;;;1.40;0.67;;;;;;;18.27;72.73;99590.88;6226263;22;20239;-92
2022/10/02 07:36:45;;;;;;;1.63;0.90;;;;;;;18.10;75.25;99598.47;6250888;22;20652;-93
2022/10/02 07:39:38;;;;;;;0.97;0.60;;;;;;;18.10;75.43;99601.19;6226270;22;20209;-88
2022/10/02 07:42:30;;;;;;;1.10;0.60;;;;;;;17.88;76.72;99607.63;6275245;22;20220;-90
2022/10/02 07:45:07;;;;;;;1.63;0.70;;;;;;;17.70;79.33;99610.84;6225462;22;20675;-93
2022/10/02 07:48:02;;;;;;;0.87;0.50;;;;;;;17.39;83.48;99609.88;6226049;22;20211;-93
2022/10/02 07:50:57;;;;;;;1.43;0.70;;;;;;;17.25;85.28;99605.22;6225807;22;20556;-93
2022/10/02 07:53:29;;;;;;;2.13;0.80;;;;;;;17.23;84.36;99605.47;6251009;22;20262;-94
2022/10/02 07:55:57;;;;;;;1.87;0.60;;;;;;;17.04;87.12;99607.81;6201372;22;20208;-94
2022/10/02 07:58:37;;;;;;;0.57;0.43;;;;;;;16.96;88.82;99608.31;6225313;22;20200;-94
2022/10/02 08:01:11;;;;;;;1.83;0.60;;;;;;;16.70;94.12;99617.34;6226426;22;20200;-94
2022/10/02 08:04:03;;;;;;;1.50;0.60;;;;;;;16.59;96.53;99615.63;6198267;22;20208;-93
2022/10/02 08:06:31;;;;;;;1.87;0.80;;;;;;;16.44;100.00;99621.69;6225630;22;20787;-94
2022/10/02 08:09:01;;;;;;;0.73;0.50;;;;;;;16.40;100.00;99626.00;6200944;22;20208;-94
2022/10/02 08:11:32;;;;;;;1.73;0.57;;;;;;;16.32;100.00;99625.66;6200540;22;20211;-93
2022/10/02 08:14:02;;;;;;;2.40;0.70;;;;;;;16.26;100.00;99628.31;6200674;22;20260;-93
2022/10/02 08:16:35;;;;;;;2.00;0.70;;;;;;;16.24;100.00;99635.03;6250458;22;20200;-94
2022/10/02 08:19:11;;;;;;;1.63;0.70;;;;;;;16.32;100.00;99642.69;6206963;22;20205;-94
2022/10/02 08:21:45;;;;;;;1.93;1.00;;;;;;;16.35;100.00;99638.66;6190354;22;20204;-94
2022/10/02 08:24:25;;;;;;;1.13;0.67;;;;;;;16.44;100.00;99619.00;6236619;22;20215;-93
2022/10/02 08:26:56;;;;;;;2.70;1.23;;;;;;;16.48;100.00;99639.03;6220640;23;20209;-93
2022/10/02 08:29:25;;;;;;;0.93;0.60;;;;;;;16.49;100.00;99610.91;6196416;23;20284;-94
2022/10/02 08:31:52;;;;;;;2.23;0.60;;;;;;;16.64;100.00;99623.78;6220136;22;20895;-93
2022/10/02 08:34:23;;;;;;;3.87;1.10;;;;;;;16.76;100.00;99618.16;6170053;23;20213;-93
2022/10/02 08:37:08;;;;;;;1.80;0.53;;;;;;;16.91;100.00;99616.41;6170798;23;20216;-93
2022/10/02 08:39:53;;;;;;;1.53;0.70;;;;;;;17.36;98.32;99612.28;6220661;23;20215;-94
2022/10/02 08:42:31;;;;;;;1.43;0.60;;;;;;;17.80;91.91;99612.75;6220583;23;20231;-93
2022/10/02 08:45:25;;;;;;;1.07;0.60;;;;;;;18.15;88.64;99615.53;6220169;22;20209;-93
2022/10/02 08:48:07;;;;;;;1.07;0.60;;;;;;;18.81;82.55;99607.41;6156370;23;20209;-93
2022/10/02 08:50:52;;;;;;;2.70;1.60;;;;;;;19.22;79.90;99594.59;6182681;23;20197;-93
2022/10/02 08:53:56;;;;;;;1.50;0.80;;;;;;;19.51;75.38;99595.56;6220312;23;20208;-93
2022/10/02 08:56:31;;;;;;;1.87;0.70;;;;;;;19.41;73.65;99603.72;6244854;22;20200;-93
2022/10/02 08:59:24;;;;;;;1.27;0.60;;;;;;;19.55;73.61;99606.72;6170658;23;20209;-92
2022/10/02 09:02:00;;;;;;;1.00;0.70;;;;;;;19.57;72.04;99596.34;6219986;23;20210;-93
2022/10/02 09:04:37;;;;;;;1.40;0.63;;;;;;;19.76;69.09;99592.72;6220147;23;20192;-93
2022/10/02 09:07:41;;;;;;;2.50;0.60;;;;;;;19.47;71.44;99593.69;6220539;23;20228;-93
2022/10/02 09:10:25;;;;;;;1.93;0.70;;;;;;;19.33;71.89;99591.53;6219663;23;20201;-93
2022/10/02 09:12:57;;;;;;;1.33;0.50;;;;;;;19.11;71.53;99584.84;6219810;23;20209;-89
2022/10/02 09:15:35;;;;;;;0.93;0.60;;;;;;;18.90;72.19;99589.50;6246346;22;20220;-92
2022/10/02 09:18:14;;;;;;;2.17;0.60;;;;;;;18.62;73.06;99592.78;6218932;23;20656;-89
2022/10/02 09:21:11;;;;;;;1.90;0.90;;;;;;;18.60;73.31;99592.25;6169501;23;20200;-91
2022/10/02 09:23:57;;;;;;;0.80;0.70;;;;;;;18.85;72.75;99590.31;6219413;22;20205;-93
2022/10/02 09:26:51;;;;;;;1.80;1.30;;;;;;;19.03;72.07;99596.25;6194190;23;20201;-93
2022/10/02 09:29:27;;;;;;;1.10;0.90;;;;;;;19.02;72.10;99586.50;6194520;23;20211;-93
2022/10/02 09:32:21;;;;;;;2.97;0.70;;;;;;;19.36;70.03;99584.75;6194987;23;20212;-93
2022/10/02 09:35:05;;;;;;;1.93;1.00;;;;;;;19.55;67.69;99583.03;6219456;23;20229;-92
2022/10/02 09:37:52;;;;;;;1.00;0.63;;;;;;;19.69;65.15;99589.50;6195262;23;20280;-93
2022/10/02 09:40:54;;;;;;;1.63;0.57;;;;;;;19.66;66.82;99590.06;6169886;23;20221;-92
2022/10/02 09:43:47;;;;;;;1.83;0.50;;;;;;;19.61;66.94;99587.38;6168795;22;20205;-92
2022/10/02 09:46:41;;;;;;;1.17;0.60;;;;;;;19.64;65.80;99586.81;6194924;23;20297;-92
2022/10/02 09:49:55;;;;;;;0.80;0.50;;;;;;;19.49;65.92;99577.94;6195810;23;20277;-91
2022/10/02 09:52:44;;;;;;;1.13;0.67;;;;;;;19.39;66.65;99591.53;6215457;23;20285;-92
2022/10/02 09:55:42;;;;;;;1.13;0.80;;;;;;;19.10;66.70;99594.06;6195144;23;20679;-93
2022/10/02 09:58:34;;;;;;;2.60;0.90;;;;;;;19.19;67.73;99590.50;6194450;23;20264;-91
2022/10/02 10:01:23;;;;;;;2.13;0.73;;;;;;;19.16;68.20;99588.34;6152731;23;20206;-92
2022/10/02 10:04:16;;;;;;;1.63;0.53;;;;;;;18.84;67.03;99594.13;6246772;22;20202;-93
2022/10/02 10:07:04;;;;;;;1.17;0.70;;;;;;;18.80;67.21;99595.75;6126680;23;20252;-93
2022/10/02 10:10:05;;;;;;;0.50;0.40;;;;;;;18.76;67.10;99588.44;6194687;23;20209;-93
2022/10/02 10:12:56;;;;;;;1.27;0.60;;;;;;;18.47;69.52;99591.72;6194083;23;20197;-93
2022/10/02 10:15:56;;;;;;;1.57;0.63;;;;;;;18.72;68.55;99590.06;6219819;23;20263;-94
2022/10/02 10:18:35;;;;;;;1.83;0.50;;;;;;;18.80;68.12;99584.09;6194463;23;20197;-92
2022/10/02 10:21:36;;;;;;;1.00;0.50;;;;;;;18.69;69.07;99575.16;6195698;22;20193;-94
2022/10/02 10:24:18;;;;;;;0.40;0.40;;;;;;;18.87;65.87;99580.00;6215788;22;20209;-87
2022/10/02 10:27:29;;;;;;;0.90;0.50;;;;;;;18.80;67.17;99579.47;6243798;22;20835;-88
2022/10/02 10:30:04;;;;;;;2.37;0.80;;;;;;;18.99;66.02;99568.84;6165960;23;20284;-87
2022/10/02 10:32:43;;;;;;;1.70;0.77;;;;;;;18.86;66.66;99577.56;6243874;22;20209;-91
2022/10/02 10:35:21;;;;;;;1.73;0.60;;;;;;;18.96;66.04;99566.69;6216532;22;20719;-88
2022/10/02 10:40:57;;;;;;;2.53;0.60;;;;;;;18.98;67.58;99563.69;6197024;23;20276;-87
2022/10/02 10:44:00;;;;;;;1.10;0.83;;;;;;;19.15;67.94;99556.03;6219052;22;20885;-85
2022/10/02 10:46:59;;;;;;;0.97;0.67;;;;;;;18.83;67.75;99564.53;6244826;22;20243;-86
2022/10/02 10:49:44;;;;;;;0.97;0.40;;;;;;;18.94;69.80;99568.06;6169541;23;20280;-86
2022/10/02 10:52:29;;;;;;;1.30;0.63;;;;;;;18.93;71.46;99575.38;6193137;23;20201;-87
2022/10/02 10:55:15;;;;;;;1.27;0.50;;;;;;;19.13;71.91;99560.94;6218343;23;20232;-86
2022/10/02 10:58:13;;;;;;;1.37;0.70;;;;;;;19.36;71.08;99561.09;6229227;22;20276;-87
2022/10/02 11:00:40;;;;;;;0.80;0.50;;;;;;;19.55;68.85;99550.44;6243313;22;20205;-87
2022/10/02 11:03:29;;;;;;;1.43;0.50;;;;;;;19.29;70.99;99557.06;6244502;22;20269;-86
2022/10/02 11:06:26;;;;;;;0.60;0.60;;;;;;;18.95;71.06;99556.91;6193307;23;20224;-85
2022/10/02 11:09:25;;;;;;;0.60;0.50;;;;;;;18.90;71.06;99573.19;6232761;23;20594;-86
2022/10/02 11:12:11;;;;;;;1.00;0.80;;;;;;;19.08;72.84;99564.50;6245197;23;20208;-85
2022/10/02 11:15:06;;;;;;;1.03;0.50;;;;;;;19.36;71.90;99565.75;6217841;23;20646;-85
2022/10/02 11:17:41;;;;;;;1.27;0.60;;;;;;;19.56;71.27;99556.69;6218552;22;20216;-86
2022/10/02 11:20:22;;;;;;;1.27;0.57;;;;;;;19.77;69.46;99550.88;6217677;23;20196;-86
2022/10/02 11:23:09;;;;;;;0.73;0.50;;;;;;;19.70;68.03;99536.75;6217910;23;20680;-86
2022/10/02 11:25:55;;;;;;;0.90;0.60;;;;;;;19.89;68.15;99542.34;6218107;23;20205;-86
2022/10/02 11:28:27;;;;;;;1.53;0.50;;;;;;;19.64;67.61;99535.16;6202815;23;20217;-86
2022/10/02 11:31:09;;;;;;;1.90;0.50;;;;;;;20.12;66.97;99535.38;6218363;23;20214;-86
2022/10/02 11:34:11;;;;;;;1.10;0.50;;;;;;;20.36;65.01;99513.72;6244336;22;20210;-86
2022/10/02 11:36:54;;;;;;;0.77;0.50;;;;;;;20.30;63.83;99512.09;6162552;23;20218;-86
2022/10/02 11:39:49;;;;;;;1.10;0.60;;;;;;;20.00;65.74;99507.75;6217818;23;20267;-85
2022/10/02 11:42:37;;;;;;;0.70;0.43;;;;;;;19.76;65.72;99511.19;6244283;23;20253;-87
2022/10/02 11:45:36;;;;;;;0.53;0.50;;;;;;;19.16;66.88;99512.31;6244600;22;20230;-86
2022/10/02 11:48:13;;;;;;;0.97;0.50;;;;;;;19.08;68.41;99504.75;6193055;23;20817;-86
2022/10/02 11:50:46;;;;;;;1.57;0.77;;;;;;;18.85;70.29;99513.50;6218788;23;20193;-86
2022/10/02 11:53:48;;;;;;;2.17;0.63;;;;;;;18.76;71.17;99498.88;6218259;23;20680;-86
2022/10/02 11:57:00;;;;;;;1.27;0.50;;;;;;;18.56;73.91;99512.50;6171153;23;20211;-86
2022/10/02 11:59:48;;;;;;;0.97;0.70;;;;;;;18.59;71.93;99506.53;6194068;23;20227;-86
2022/10/02 12:02:37;;;;;;;1.93;0.67;;;;;;;18.51;73.03;99512.47;6240714;22;20207;-87
2022/10/02 12:05:53;;;;;;;1.73;0.90;;;;;;;18.24;75.72;99507.38;6218478;23;20256;-87
2022/10/02 12:08:43;;;;;;;1.77;0.50;;;;;;;18.21;77.39;99510.59;6242228;23;20217;-86
2022/10/02 12:11:25;;;;;;;1.43;0.67;;;;;;;18.28;78.88;99511.16;6193447;23;20287;-86
2022/10/02 12:14:01;;;;;;;1.47;0.70;;;;;;;18.17;81.34;99504.91;6192940;22;20213;-86
2022/10/02 12:16:34;;;;;;;1.27;0.67;;;;;;;18.27;79.93;99499.50;6217579;23;20204;-87
2022/10/02 12:19:32;;;;;;;2.43;0.90;;;;;;;18.24;81.26;99500.06;6242930;22;20305;-87
2022/10/02 12:28:27;;;;;;;1.23;0.70;;;;;;;17.88;85.19;99493.81;6155820;22;20193;-85
2022/10/02 12:30:54;;;;;;;2.93;0.70;;;;;;;17.89;88.54;99500.03;6192675;22;20259;-85
2022/10/02 12:33:28;;;;;;;1.17;0.60;;;;;;;17.96;86.32;99481.63;6242637;22;20711;-86
2022/10/02 12:36:32;;;;;;;1.37;0.50;;;;;;;18.01;84.65;99479.69;6192422;22;20215;-86
2022/10/02 12:39:23;;;;;;;1.27;0.50;;;;;;;18.03;84.88;99477.56;6217179;23;20262;-87
2022/10/02 12:42:27;;;;;;;1.07;0.47;;;;;;;18.15;90.23;99485.38;6193976;23;20263;-87
2022/10/02 12:45:04;;;;;;;1.10;0.40;;;;;;;18.14;92.32;99481.06;6192859;23;20212;-87
2022/10/02 12:48:06;;;;;;;1.17;0.60;;;;;;;18.08;93.60;99478.63;6194339;23;20292;-87
2022/10/02 12:50:46;;;;;;;0.57;0.40;;;;;;;18.32;88.38;99476.97;6168187;23;20197;-87